createdAt,value
2023-04-09T00:00:45.498Z,12.15
2023-04-09T00:03:12.660Z,12.98
2023-04-09T00:05:40.659Z,12.45
2023-04-09T00:08:07.825Z,12.32
2023-04-09T00:10:34.829Z,13.23
2023-04-09T00:13:01.902Z,13.45
2023-04-09T00:15:31.580Z,12.32
2023-04-09T00:17:59.745Z,13.77
2023-04-09T00:20:26.858Z,14.40
2023-04-09T00:22:54.225Z,13.48
2023-04-09T00:25:21.272Z,12.38
2023-04-09T00:27:48.226Z,13.93
2023-04-09T00:30:15.956Z,14.15
2023-04-09T00:32:43.075Z,14.55
2023-04-09T00:35:12.633Z,13.57
2023-04-09T00:37:39.648Z,14.75
2023-04-09T00:40:07.170Z,13.73
2023-04-09T00:42:34.863Z,13.68
2023-04-09T00:45:02.126Z,11.45
2023-04-09T00:47:29.826Z,12.93
2023-04-09T00:49:57.004Z,11.48
2023-04-09T00:52:24.717Z,12.93
2023-04-09T00:54:51.846Z,11.15
2023-04-09T00:57:19.359Z,14.57
2023-04-09T00:59:46.418Z,12.10
2023-04-09T01:02:13.529Z,11.80
2023-04-09T01:04:41.247Z,12.23
2023-04-09T01:07:20.948Z,13.95
2023-04-09T01:09:54.835Z,12.68
2023-04-09T01:12:34.222Z,11.55
2023-04-09T01:15:30.154Z,14.75
2023-04-09T01:18:12.476Z,14.48
2023-04-09T01:20:41.557Z,11.25
2023-04-09T01:23:19.249Z,12.98
2023-04-09T01:28:45.721Z,13.40
2023-04-09T01:31:15.393Z,12.93
2023-04-09T01:33:42.637Z,13.07
2023-04-09T01:36:09.773Z,15.45
2023-04-09T01:38:37.700Z,14.30
2023-04-09T01:41:05.395Z,16.13
2023-04-09T01:43:32.386Z,15.45
2023-04-09T01:45:59.812Z,14.05
2023-04-09T01:48:27.173Z,14.10
2023-04-09T01:50:54.151Z,12.82
2023-04-09T01:53:21.928Z,13.10
2023-04-09T01:55:48.873Z,12.90
2023-04-09T01:58:16.019Z,12.25
2023-04-09T02:00:46.973Z,14.68
2023-04-09T02:03:21.752Z,13.73
2023-04-09T02:06:06.864Z,13.52
2023-04-09T02:08:33.837Z,15.50
2023-04-09T02:11:00.924Z,12.88
2023-04-09T02:13:27.904Z,12.82
2023-04-09T02:15:56.163Z,16.13
2023-04-09T02:18:30.241Z,12.40
2023-04-09T02:20:57.572Z,13.60
2023-04-09T02:23:24.778Z,15.05
2023-04-09T02:25:52.265Z,14.75
2023-04-09T02:28:19.315Z,15.10
2023-04-09T02:30:46.331Z,16.23
2023-04-09T02:33:13.435Z,14.95
2023-04-09T02:35:40.774Z,16.58
2023-04-09T02:38:13.920Z,13.45
2023-04-09T02:40:41.447Z,17.05
2023-04-09T02:43:09.230Z,14.13
2023-04-09T02:45:36.350Z,13.30
2023-04-09T02:48:03.858Z,12.55
2023-04-09T02:50:34.645Z,12.48
2023-04-09T02:53:01.929Z,12.88
2023-04-09T02:55:28.979Z,13.13
2023-04-09T02:57:56.068Z,12.15
2023-04-09T03:00:23.130Z,13.98
2023-04-09T03:02:50.403Z,11.85
2023-04-09T03:05:17.650Z,11.82
2023-04-09T03:07:44.996Z,14.00
2023-04-09T03:10:12.125Z,12.05
2023-04-09T03:12:39.214Z,12.85
2023-04-09T03:15:07.036Z,11.32
2023-04-09T03:17:34.118Z,13.07
2023-04-09T03:20:01.164Z,12.93
2023-04-09T03:22:38.947Z,11.43
2023-04-09T03:25:19.521Z,10.55
2023-04-09T03:27:47.384Z,13.07
2023-04-09T03:30:22.036Z,13.02
2023-04-09T03:32:49.089Z,11.40
2023-04-09T03:35:16.370Z,10.18
2023-04-09T03:37:44.886Z,12.00
2023-04-09T03:40:17.178Z,13.02
2023-04-09T03:42:44.409Z,11.48
2023-04-09T03:45:14.238Z,11.82
2023-04-09T03:47:44.552Z,12.82
2023-04-09T03:50:12.435Z,12.27
2023-04-09T03:52:55.074Z,10.55
2023-04-09T03:55:22.491Z,10.50
2023-04-09T03:57:50.765Z,12.75
2023-04-09T04:00:20.820Z,12.20
2023-04-09T04:02:51.561Z,11.98
2023-04-09T04:05:29.186Z,13.13
2023-04-09T04:07:59.131Z,10.85
2023-04-09T04:10:29.276Z,14.23
2023-04-09T04:12:56.305Z,14.82
2023-04-09T04:15:33.887Z,16.77
2023-04-09T04:18:01.030Z,13.93
2023-04-09T04:20:42.171Z,14.27
2023-04-09T04:23:12.990Z,11.65
2023-04-09T04:25:58.537Z,10.45
2023-04-09T04:28:30.834Z,12.85
2023-04-09T04:30:59.275Z,12.82
2023-04-09T04:33:27.847Z,13.18
2023-04-09T04:36:13.620Z,12.82
2023-04-09T04:38:45.010Z,12.35
2023-04-09T04:41:20.915Z,13.43
2023-04-09T04:43:54.542Z,13.38
2023-04-09T04:46:24.714Z,11.27
2023-04-09T04:48:51.954Z,13.52
2023-04-09T04:51:19.528Z,13.65
2023-04-09T04:53:58.669Z,15.65
2023-04-09T04:56:25.808Z,15.40
2023-04-09T04:59:02.471Z,13.10
2023-04-09T05:01:36.266Z,14.05
2023-04-09T05:04:07.720Z,14.35
2023-04-09T05:06:36.972Z,11.18
2023-04-09T05:09:08.421Z,11.10
2023-04-09T05:11:42.137Z,14.85
2023-04-09T05:14:14.734Z,16.27
2023-04-09T05:16:42.245Z,16.17
2023-04-09T05:19:09.258Z,16.02
2023-04-09T05:21:37.712Z,15.90
2023-04-09T05:24:06.372Z,14.10
2023-04-09T05:26:34.348Z,14.10
2023-04-09T05:29:02.687Z,14.70
2023-04-09T05:31:29.786Z,13.43
2023-04-09T05:34:06.818Z,14.57
2023-04-09T05:36:47.602Z,12.40
2023-04-09T05:39:15.521Z,14.32
2023-04-09T05:41:44.636Z,13.13
2023-04-09T05:44:26.713Z,14.93
2023-04-09T05:47:00.888Z,14.77
2023-04-09T05:49:33.925Z,15.13
2023-04-09T05:52:03.521Z,14.65
2023-04-09T05:54:32.682Z,15.55
2023-04-09T05:56:59.652Z,17.40
2023-04-09T05:59:27.136Z,16.92
2023-04-09T06:01:54.264Z,14.57
2023-04-09T06:04:22.182Z,13.90
2023-04-09T06:06:49.596Z,13.88
2023-04-09T06:09:16.540Z,14.07
2023-04-09T06:11:43.524Z,15.43
2023-04-09T06:14:16.386Z,15.57
2023-04-09T06:16:43.536Z,18.00
2023-04-09T06:19:12.536Z,15.57
2023-04-09T06:21:40.828Z,16.90
2023-04-09T06:24:07.869Z,14.27
2023-04-09T06:26:34.833Z,16.10
2023-04-09T06:29:02.203Z,16.00
2023-04-09T06:31:29.727Z,15.85
2023-04-09T06:33:56.918Z,16.00
2023-04-09T06:36:23.948Z,15.70
2023-04-09T06:38:51.059Z,15.02
2023-04-09T06:41:21.301Z,17.58
2023-04-09T06:43:48.390Z,17.92
2023-04-09T06:46:17.942Z,18.83
2023-04-09T06:48:44.922Z,16.35
2023-04-09T06:51:12.337Z,18.45
2023-04-09T06:53:39.490Z,17.73
2023-04-09T06:56:06.900Z,17.35
2023-04-09T06:58:34.077Z,19.23
2023-04-09T07:01:01.186Z,19.30
2023-04-09T07:03:28.950Z,18.13
2023-04-09T07:05:56.609Z,20.65
2023-04-09T07:08:23.983Z,18.85
2023-04-09T07:10:51.210Z,17.65
2023-04-09T07:13:18.743Z,20.65
2023-04-09T07:15:45.792Z,19.42
2023-04-09T07:18:12.880Z,19.40
2023-04-09T07:20:39.821Z,18.60
2023-04-09T07:23:06.933Z,18.85
2023-04-09T07:25:34.094Z,20.27
2023-04-09T07:28:01.157Z,19.83
2023-04-09T07:30:28.165Z,21.42
2023-04-09T07:32:55.337Z,19.40
2023-04-09T07:35:22.448Z,22.45
2023-04-09T07:37:49.452Z,20.85
2023-04-09T07:40:16.638Z,19.92
2023-04-09T07:42:43.783Z,22.35
2023-04-09T07:45:11.160Z,20.88
2023-04-09T07:47:42.110Z,20.58
2023-04-09T07:50:09.661Z,20.90
2023-04-09T07:52:36.614Z,22.27
2023-04-09T07:55:03.727Z,20.45
2023-04-09T07:57:33.760Z,21.95
2023-04-09T08:00:01.846Z,20.92
2023-04-09T08:02:40.219Z,23.15
2023-04-09T08:05:08.037Z,19.50
2023-04-09T08:07:35.205Z,20.25
2023-04-09T08:10:02.175Z,18.88
2023-04-09T08:12:29.248Z,21.65
2023-04-09T08:14:56.437Z,23.73
2023-04-09T08:17:23.422Z,20.10
2023-04-09T08:19:50.801Z,19.70
2023-04-09T08:22:17.785Z,21.27
2023-04-09T08:24:44.777Z,22.63
2023-04-09T08:27:12.193Z,21.27
2023-04-09T08:29:40.632Z,19.38
2023-04-09T08:32:08.191Z,22.63
2023-04-09T08:34:35.279Z,18.98
2023-04-09T08:37:02.788Z,20.05
2023-04-09T08:39:29.804Z,19.30
2023-04-09T08:42:00.045Z,19.20
2023-04-09T08:44:27.349Z,19.95
2023-04-09T08:46:54.557Z,16.17
2023-04-09T08:49:21.761Z,16.40
2023-04-09T08:51:49.201Z,17.85
2023-04-09T08:54:17.291Z,18.42
2023-04-09T08:56:44.350Z,19.52
2023-04-09T08:59:11.441Z,22.52
2023-04-09T09:01:38.542Z,21.52
2023-04-09T09:04:07.012Z,19.92
2023-04-09T09:06:38.371Z,18.13
2023-04-09T09:09:12.710Z,21.75
2023-04-09T09:11:41.354Z,20.45
2023-04-09T09:14:09.801Z,16.23
2023-04-09T09:16:42.737Z,15.10
2023-04-09T09:19:24.850Z,21.08
2023-04-09T09:21:59.699Z,21.98
2023-04-09T09:24:26.749Z,20.90
2023-04-09T09:26:59.984Z,21.30
2023-04-09T09:29:28.206Z,21.52
2023-04-09T09:31:55.926Z,20.35
2023-04-09T09:34:23.840Z,24.67
2023-04-09T09:36:50.974Z,21.83
2023-04-09T09:39:18.222Z,23.20
2023-04-09T09:41:45.976Z,21.50
2023-04-09T09:44:13.853Z,23.50
2023-04-09T09:46:42.447Z,20.30
2023-04-09T09:49:09.649Z,23.20
2023-04-09T09:51:37.564Z,18.80
2023-04-09T09:54:04.539Z,21.80
2023-04-09T09:56:37.147Z,21.10
2023-04-09T09:59:07.631Z,21.77
2023-04-09T10:01:36.198Z,20.88
2023-04-09T10:04:04.643Z,20.77
2023-04-09T10:06:34.241Z,24.23
2023-04-09T10:09:04.594Z,23.77
2023-04-09T10:11:33.713Z,24.15
2023-04-09T10:14:00.822Z,21.88
2023-04-09T10:16:28.428Z,25.35
2023-04-09T10:18:56.413Z,24.23
2023-04-09T10:21:47.761Z,21.55
2023-04-09T10:24:16.065Z,22.17
2023-04-09T10:26:44.773Z,23.65
2023-04-09T10:29:16.630Z,25.02
2023-04-09T10:31:47.582Z,23.45
2023-04-09T10:34:21.865Z,25.05
2023-04-09T10:36:55.448Z,20.10
2023-04-09T10:39:27.056Z,21.67
2023-04-09T10:41:54.471Z,24.38
2023-04-09T10:44:27.120Z,22.15
2023-04-09T10:46:57.156Z,19.13
2023-04-09T10:49:25.592Z,19.05
2023-04-09T10:51:53.488Z,18.42
2023-04-09T10:54:35.838Z,19.10
2023-04-09T10:57:11.552Z,16.65
2023-04-09T10:59:45.503Z,17.42
2023-04-09T11:02:41.123Z,17.95
2023-04-09T11:05:22.301Z,17.52
2023-04-09T11:08:03.391Z,18.77
2023-04-09T11:10:31.044Z,18.73
2023-04-09T11:12:58.076Z,18.52
2023-04-09T11:15:25.120Z,19.60
2023-04-09T11:17:52.191Z,18.08
2023-04-09T11:20:23.355Z,19.15
2023-04-09T11:22:51.517Z,19.55
2023-04-09T11:25:22.726Z,19.70
2023-04-09T11:27:50.164Z,20.30
2023-04-09T11:30:17.206Z,19.13
2023-04-09T11:32:44.269Z,17.80
2023-04-09T11:35:18.315Z,15.73
2023-04-09T11:37:45.805Z,15.77
2023-04-09T11:40:16.965Z,16.33
2023-04-09T11:42:44.986Z,19.77
2023-04-09T11:45:12.328Z,17.73
2023-04-09T11:47:40.578Z,16.63
2023-04-09T11:50:08.411Z,19.40
2023-04-09T11:52:36.063Z,18.45
2023-04-09T11:55:04.610Z,18.98
2023-04-09T11:57:41.381Z,17.67
2023-04-09T12:00:09.505Z,17.23
2023-04-09T12:02:44.475Z,14.63
2023-04-09T12:05:13.521Z,15.63
2023-04-09T12:07:42.325Z,17.70
2023-04-09T12:10:14.013Z,17.30
2023-04-09T12:12:47.728Z,19.42
2023-04-09T12:15:21.673Z,20.27
2023-04-09T12:17:52.191Z,16.60
2023-04-09T12:20:42.524Z,17.23
2023-04-09T12:23:09.993Z,18.48
2023-04-09T12:25:43.986Z,17.55
2023-04-09T12:28:13.691Z,18.27
2023-04-09T12:30:40.811Z,19.10
2023-04-09T12:33:10.301Z,17.10
2023-04-09T12:35:38.515Z,17.35
2023-04-09T12:38:05.779Z,16.42
2023-04-09T12:40:32.773Z,18.63
2023-04-09T12:42:59.762Z,19.52
2023-04-09T12:45:28.068Z,19.77
2023-04-09T12:47:55.176Z,20.35
2023-04-09T12:50:22.245Z,17.73
2023-04-09T12:52:49.288Z,20.48
2023-04-09T12:55:16.435Z,17.75
2023-04-09T12:57:45.052Z,16.92
2023-04-09T13:00:12.665Z,19.80
2023-04-09T13:02:39.882Z,16.20
2023-04-09T13:05:07.566Z,18.02
2023-04-09T13:07:34.667Z,18.55
2023-04-09T13:10:01.703Z,18.77
2023-04-09T13:12:28.816Z,17.80
2023-04-09T13:14:56.702Z,20.27
2023-04-09T13:17:23.892Z,19.02
2023-04-09T13:19:51.830Z,17.23
2023-04-09T13:22:19.094Z,15.93
2023-04-09T13:24:46.131Z,17.23
2023-04-09T13:27:13.095Z,17.90
2023-04-09T13:29:40.192Z,18.30
2023-04-09T13:32:07.633Z,19.73
2023-04-09T13:34:35.200Z,17.17
2023-04-09T13:37:03.073Z,17.38
2023-04-09T13:39:30.017Z,16.88
2023-04-09T13:41:57.037Z,12.68
2023-04-09T13:44:25.070Z,11.55
2023-04-09T13:46:52.458Z,12.88
2023-04-09T13:49:19.404Z,12.75
2023-04-09T13:51:46.501Z,14.57
2023-04-09T13:54:13.593Z,15.82
2023-04-09T13:56:40.616Z,14.57
2023-04-09T13:59:07.621Z,14.43
2023-04-09T14:01:34.773Z,13.40
2023-04-09T14:04:02.254Z,14.20
2023-04-09T14:06:29.378Z,13.65
2023-04-09T14:08:57.145Z,14.45
2023-04-09T14:11:24.388Z,14.25
2023-04-09T14:13:51.744Z,14.90
2023-04-09T14:16:19.448Z,15.68
2023-04-09T14:18:46.537Z,12.20
2023-04-09T14:21:13.533Z,14.55
2023-04-09T14:23:40.779Z,13.20
2023-04-09T14:26:07.783Z,12.63
2023-04-09T14:28:34.767Z,15.50
2023-04-09T14:31:01.896Z,15.38
2023-04-09T14:33:28.897Z,13.52
2023-04-09T14:35:56.348Z,13.85
2023-04-09T14:38:26.538Z,15.05
2023-04-09T14:40:53.574Z,12.82
2023-04-09T14:43:20.523Z,14.18
2023-04-09T14:45:47.787Z,13.68
2023-04-09T14:48:15.075Z,14.00
2023-04-09T14:50:43.194Z,12.57
2023-04-09T14:53:10.297Z,13.30
2023-04-09T14:55:37.333Z,13.70
2023-04-09T14:58:07.140Z,14.20
2023-04-09T15:00:34.261Z,11.32
2023-04-09T15:03:01.427Z,12.05
2023-04-09T15:05:28.709Z,13.48
2023-04-09T15:07:56.117Z,14.50
2023-04-09T15:10:23.180Z,14.05
2023-04-09T15:12:50.269Z,12.88
2023-04-09T15:15:17.472Z,11.43
2023-04-09T15:17:44.557Z,12.77
2023-04-09T15:20:11.865Z,13.88
2023-04-09T15:22:38.808Z,12.63
2023-04-09T15:25:06.259Z,14.85
2023-04-09T15:27:33.269Z,12.43
2023-04-09T15:30:00.457Z,12.45
2023-04-09T15:32:29.073Z,11.38
2023-04-09T15:34:56.290Z,12.52
2023-04-09T15:37:23.320Z,12.70
2023-04-09T15:39:50.658Z,13.90
2023-04-09T15:42:22.519Z,14.65
2023-04-09T15:44:50.535Z,13.77
2023-04-09T15:47:17.819Z,11.40
2023-04-09T15:49:45.018Z,10.32
2023-04-09T15:52:12.020Z,12.02
2023-04-09T15:54:38.976Z,13.00
2023-04-09T15:57:05.996Z,12.18
2023-04-09T15:59:32.965Z,14.95
2023-04-09T16:02:00.009Z,11.50
2023-04-09T16:04:27.745Z,12.00
2023-04-09T16:06:56.414Z,12.43
2023-04-09T16:09:23.879Z,13.65
2023-04-09T16:11:51.214Z,11.93
2023-04-09T16:14:18.245Z,13.23
2023-04-09T16:16:50.070Z,12.77
2023-04-09T16:21:45.609Z,11.75
2023-04-09T16:24:12.863Z,12.88
2023-04-09T16:26:41.108Z,13.73
2023-04-09T16:29:08.233Z,11.52
2023-04-09T16:31:36.040Z,12.38
2023-04-09T16:34:03.173Z,12.65
2023-04-09T16:36:37.233Z,12.18
2023-04-09T16:39:04.790Z,11.00
2023-04-09T16:41:31.981Z,12.18
2023-04-09T16:43:58.979Z,12.63
2023-04-09T16:46:26.083Z,13.43
2023-04-09T16:48:53.523Z,12.32
2023-04-09T16:51:21.137Z,11.40
2023-04-09T16:53:48.152Z,12.77
2023-04-09T16:56:16.105Z,12.40
2023-04-09T16:58:43.107Z,15.00
2023-04-09T17:01:10.138Z,12.65
2023-04-09T17:03:37.504Z,11.73
2023-04-09T17:06:05.016Z,11.90
2023-04-09T17:08:32.224Z,11.80
2023-04-09T17:11:02.567Z,12.55
2023-04-09T17:13:31.625Z,12.43
2023-04-09T17:15:58.767Z,13.43
2023-04-09T17:18:25.821Z,13.68
2023-04-09T17:20:53.473Z,13.05
2023-04-09T17:23:21.736Z,11.25
2023-04-09T17:25:49.303Z,10.95
2023-04-09T17:28:18.683Z,12.18
2023-04-09T17:30:46.013Z,13.65
2023-04-09T17:33:13.430Z,13.68
2023-04-09T17:35:42.195Z,13.43
2023-04-09T17:38:09.233Z,13.20
2023-04-09T17:40:36.481Z,12.68
2023-04-09T17:43:03.530Z,13.50
2023-04-09T17:45:30.529Z,12.88
2023-04-09T17:47:57.628Z,14.18
2023-04-09T17:50:24.969Z,14.15
2023-04-09T17:52:52.453Z,13.45
2023-04-09T17:55:19.501Z,9.70
2023-04-09T17:57:46.500Z,12.75
2023-04-09T18:00:14.046Z,11.68
2023-04-09T18:02:47.089Z,13.65
2023-04-09T18:05:14.434Z,14.43
2023-04-09T18:07:41.684Z,11.30
2023-04-09T18:10:08.873Z,13.77
2023-04-09T18:12:35.976Z,13.40
2023-04-09T18:15:04.363Z,10.82
2023-04-09T18:17:32.470Z,11.73
2023-04-09T18:19:59.547Z,13.15
2023-04-09T18:22:27.630Z,12.35
2023-04-09T18:24:54.972Z,12.57
2023-04-09T18:27:21.886Z,13.90
2023-04-09T18:29:49.465Z,11.98
2023-04-09T18:32:17.104Z,12.05
2023-04-09T18:34:45.808Z,12.30
2023-04-09T18:37:12.884Z,12.82
2023-04-09T18:39:39.963Z,12.70
2023-04-09T18:42:07.076Z,10.85
2023-04-09T18:44:36.350Z,10.45
2023-04-09T18:47:05.832Z,12.43
2023-04-09T18:49:33.336Z,12.10
2023-04-09T18:52:00.532Z,10.50
2023-04-09T18:54:27.827Z,11.00
2023-04-09T18:56:54.855Z,12.00
2023-04-09T18:59:21.986Z,12.70
2023-04-09T19:01:49.097Z,13.60
2023-04-09T19:04:16.467Z,13.43
2023-04-09T19:06:46.552Z,12.98
2023-04-09T19:09:13.711Z,15.23
2023-04-09T19:11:41.221Z,11.63
2023-04-09T19:14:08.437Z,13.10
2023-04-09T19:16:36.124Z,12.60
2023-04-09T19:19:03.531Z,13.88
2023-04-09T19:21:30.712Z,12.40
2023-04-09T19:24:00.036Z,14.05
2023-04-09T19:26:27.145Z,13.10
2023-04-09T19:28:54.885Z,14.00
2023-04-09T19:31:22.761Z,13.32
2023-04-09T19:33:49.801Z,12.98
2023-04-09T19:36:16.848Z,12.50
2023-04-09T19:38:43.842Z,11.15
2023-04-09T19:41:11.055Z,13.50
2023-04-09T19:43:39.337Z,13.27
2023-04-09T19:46:08.557Z,12.70
2023-04-09T19:48:37.834Z,10.48
2023-04-09T19:51:05.070Z,14.77
2023-04-09T19:53:33.061Z,11.02
2023-04-09T19:56:00.105Z,16.42
2023-04-09T19:58:27.393Z,14.88
2023-04-09T20:00:55.022Z,14.48
2023-04-09T20:03:22.475Z,16.70
2023-04-09T20:05:49.731Z,14.05
2023-04-09T20:08:16.742Z,15.50
2023-04-09T20:10:46.525Z,13.35
2023-04-09T20:13:13.885Z,11.77
2023-04-09T20:15:41.682Z,12.00
2023-04-09T20:18:08.811Z,13.93
2023-04-09T20:20:36.198Z,13.15
2023-04-09T20:23:03.424Z,13.38
2023-04-09T20:25:34.769Z,17.73
2023-04-09T20:28:04.878Z,13.68
2023-04-09T20:30:32.368Z,13.63
2023-04-09T20:32:59.369Z,15.80
2023-04-09T20:35:26.353Z,13.35
2023-04-09T20:37:54.806Z,9.30
2023-04-09T20:40:22.339Z,11.57
2023-04-09T20:42:49.396Z,11.48
2023-04-09T20:45:16.434Z,11.48
2023-04-09T20:47:43.448Z,13.65
2023-04-09T20:50:10.890Z,16.63
2023-04-09T20:52:38.425Z,13.45
2023-04-09T20:55:06.419Z,14.45
2023-04-09T20:57:33.809Z,15.60
2023-04-09T21:00:01.073Z,18.35
2023-04-09T21:02:28.206Z,14.32
2023-04-09T21:04:56.414Z,17.13
2023-04-09T21:07:23.443Z,14.45
2023-04-09T21:09:50.424Z,14.75
2023-04-09T21:12:17.439Z,16.55
2023-04-09T21:14:44.483Z,13.52
2023-04-09T21:17:11.569Z,16.83
2023-04-09T21:19:38.664Z,13.32
2023-04-09T21:22:05.617Z,13.00
2023-04-09T21:24:34.069Z,15.95
2023-04-09T21:27:01.738Z,15.73
2023-04-09T21:29:28.710Z,15.50
2023-04-09T21:31:55.911Z,12.90
2023-04-09T21:34:22.930Z,13.68
2023-04-09T21:36:50.018Z,13.23
2023-04-09T21:39:17.248Z,14.20
2023-04-09T21:41:44.226Z,14.32
2023-04-09T21:44:11.296Z,14.20
2023-04-09T21:46:40.690Z,14.82
2023-04-09T21:49:08.192Z,13.93
2023-04-09T21:51:35.481Z,14.65
2023-04-09T21:54:06.839Z,12.35
2023-04-09T21:56:34.372Z,14.60
2023-04-09T21:59:01.495Z,14.02
2023-04-09T22:01:30.540Z,14.20
2023-04-09T22:04:01.889Z,15.02
2023-04-09T22:06:29.293Z,13.65
2023-04-09T22:08:57.357Z,11.88
2023-04-09T22:11:28.504Z,22.20
2023-04-09T22:13:56.811Z,34.83
2023-04-09T22:16:24.226Z,19.38
2023-04-09T22:18:51.789Z,21.55
2023-04-09T22:21:18.986Z,16.48
2023-04-09T22:23:45.929Z,17.60
2023-04-09T22:26:13.161Z,21.17
2023-04-09T22:28:40.176Z,15.70
2023-04-09T22:31:07.409Z,16.20
2023-04-09T22:33:34.545Z,14.50
2023-04-09T22:36:01.863Z,13.32
2023-04-09T22:38:28.973Z,11.98
2023-04-09T22:40:56.133Z,13.02
2023-04-09T22:43:23.306Z,14.02
2023-04-09T22:45:54.509Z,14.23
2023-04-09T22:48:22.090Z,12.52
2023-04-09T22:50:49.642Z,13.82
2023-04-09T22:53:19.313Z,11.80
2023-04-09T22:55:47.650Z,12.27
2023-04-09T22:58:14.931Z,12.90
2023-04-09T23:00:42.340Z,13.00
2023-04-09T23:03:09.685Z,11.80
2023-04-09T23:05:36.829Z,12.80
2023-04-09T23:08:04.002Z,13.23
2023-04-09T23:10:31.443Z,15.30
2023-04-09T23:12:58.392Z,12.48
2023-04-09T23:15:25.570Z,13.63
2023-04-09T23:17:52.621Z,11.38
2023-04-09T23:20:19.878Z,13.50
2023-04-09T23:22:47.541Z,14.55
2023-04-09T23:25:17.362Z,16.02
2023-04-09T23:27:44.368Z,13.90
2023-04-09T23:30:16.717Z,13.52
2023-04-09T23:32:46.991Z,14.63
2023-04-09T23:35:14.262Z,13.82
2023-04-09T23:37:41.551Z,14.93
2023-04-09T23:40:08.942Z,14.88
2023-04-09T23:42:35.967Z,11.63
2023-04-09T23:45:04.433Z,12.27
2023-04-09T23:47:33.466Z,12.98
2023-04-09T23:50:05.014Z,12.60
2023-04-09T23:55:00.198Z,9.52
2023-04-09T23:57:27.544Z,11.48
2023-04-09T23:59:54.688Z,12.32
